createdAt,value
2019-01-17T05:03:56.172Z,0
2019-01-17T05:07:24.061Z,0
2019-01-17T05:10:51.945Z,0
2019-01-17T05:14:19.878Z,0
2019-01-17T05:17:47.762Z,0
2019-01-17T05:21:15.649Z,0
2019-01-17T05:24:43.536Z,0
2019-01-17T05:28:11.400Z,0
2019-01-17T05:31:39.309Z,0
2019-01-17T05:35:07.195Z,0
2019-01-17T05:38:35.069Z,0
2019-01-17T05:42:02.959Z,0
2019-01-17T05:45:30.849Z,0
2019-01-17T05:48:58.720Z,0
2019-01-17T05:52:26.606Z,0
2019-01-17T05:55:54.489Z,0
2019-01-17T05:59:22.356Z,0
2019-01-17T06:02:50.248Z,0
2019-01-17T06:06:18.133Z,0
2019-01-17T06:09:45.997Z,0
2019-01-17T06:13:13.890Z,0
2019-01-17T06:16:41.880Z,0
2019-01-17T06:20:09.752Z,0
2019-01-17T06:23:37.632Z,0
2019-01-17T06:27:05.623Z,0
2019-01-17T06:30:34.491Z,0
2019-01-17T06:34:02.369Z,0
2019-01-17T06:37:30.275Z,1
2019-01-17T06:40:58.146Z,2
2019-01-17T06:44:26.046Z,2
2019-01-17T06:47:53.932Z,3
2019-01-17T06:51:21.809Z,6
2019-01-17T06:54:49.699Z,10
2019-01-17T06:58:17.586Z,13
2019-01-17T07:01:45.462Z,18
2019-01-17T07:05:13.349Z,31
2019-01-17T07:08:41.236Z,42
2019-01-17T07:12:10.100Z,66
2019-01-17T07:15:37.989Z,104
2019-01-17T07:19:05.880Z,146
2019-01-17T07:22:33.761Z,187
2019-01-17T07:26:01.653Z,249
2019-01-17T07:29:29.539Z,265
2019-01-17T07:32:57.433Z,289
2019-01-17T07:36:25.299Z,249
2019-01-17T07:39:53.185Z,330
2019-01-17T07:43:21.096Z,316
2019-01-17T07:46:48.959Z,463
2019-01-17T07:50:16.849Z,548
2019-01-17T07:53:44.737Z,683
2019-01-17T07:57:12.607Z,810
2019-01-17T08:00:40.505Z,1019
2019-01-17T08:04:08.396Z,1075
2019-01-17T08:07:36.261Z,1185
2019-01-17T08:11:05.142Z,1057
2019-01-17T08:14:33.026Z,1109
2019-01-17T08:18:02.878Z,1621
2019-01-17T08:21:30.755Z,1323
2019-01-17T08:24:58.637Z,1350
2019-01-17T08:28:27.502Z,1417
2019-01-17T08:31:55.389Z,1506
2019-01-17T08:35:23.277Z,1342
2019-01-17T08:38:52.135Z,1290
2019-01-17T08:42:20.022Z,1468
2019-01-17T08:45:47.911Z,1933
2019-01-17T08:49:15.782Z,2073
2019-01-17T08:52:43.674Z,2266
2019-01-17T08:56:11.567Z,1593
2019-01-17T08:59:40.421Z,1574
2019-01-17T09:03:08.307Z,1884
2019-01-17T09:06:37.185Z,2147
2019-01-17T09:10:05.074Z,2837
2019-01-17T09:13:32.959Z,3138
2019-01-17T09:17:00.848Z,1410
2019-01-17T09:20:28.735Z,1623
2019-01-17T09:23:56.621Z,1315
2019-01-17T09:27:24.512Z,1242
2019-01-17T09:30:52.407Z,1163
2019-01-17T09:34:20.280Z,1166
2019-01-17T09:37:48.170Z,1336
2019-01-17T09:41:16.058Z,1223
2019-01-17T09:44:43.956Z,1189
2019-01-17T09:48:11.844Z,2065
2019-01-17T09:51:39.726Z,1833
2019-01-17T09:55:07.714Z,2208
2019-01-17T09:58:35.581Z,1610
2019-01-17T10:02:03.473Z,1338
2019-01-17T10:05:31.356Z,1430
2019-01-17T10:08:59.229Z,1741
2019-01-17T10:12:27.115Z,1364
2019-01-17T10:15:54.999Z,1146
2019-01-17T10:19:22.870Z,1301
2019-01-17T10:22:50.758Z,1521
2019-01-17T10:26:21.637Z,1571
2019-01-17T10:29:50.498Z,1916
2019-01-17T10:33:18.390Z,2291
2019-01-17T10:36:46.279Z,1917
2019-01-17T10:40:14.151Z,1615
2019-01-17T10:43:42.037Z,979
2019-01-17T10:47:10.920Z,1003
2019-01-17T10:50:38.790Z,1130
2019-01-17T10:54:06.677Z,1211
2019-01-17T10:57:34.669Z,1310
2019-01-17T11:01:02.555Z,1552
2019-01-17T11:04:30.440Z,1404
2019-01-17T11:07:58.327Z,1880
2019-01-17T11:11:26.213Z,2624
2019-01-17T11:14:55.085Z,2881
2019-01-17T11:18:22.959Z,2260
2019-01-17T11:21:50.844Z,2749
2019-01-17T11:25:18.732Z,2175
2019-01-17T11:28:46.598Z,1887
2019-01-17T11:32:14.492Z,1611
2019-01-17T11:35:42.380Z,1442
2019-01-17T11:39:10.256Z,1323
2019-01-17T11:42:38.149Z,1200
2019-01-17T11:46:06.038Z,1583
2019-01-17T11:49:33.908Z,1487
2019-01-17T11:53:01.786Z,1637
2019-01-17T11:56:29.668Z,1494
2019-01-17T11:59:57.543Z,1524
2019-01-17T12:03:25.430Z,1536
2019-01-17T12:06:53.325Z,1584
2019-01-17T12:10:21.199Z,1456
2019-01-17T12:13:50.078Z,1639
2019-01-17T12:17:17.967Z,1535
2019-01-17T12:20:45.840Z,2184
2019-01-17T12:24:14.723Z,1669
2019-01-17T12:27:44.589Z,1665
2019-01-17T12:31:12.473Z,1959
2019-01-17T12:34:40.379Z,1777
2019-01-17T12:38:08.240Z,1313
2019-01-17T12:41:36.102Z,1421
2019-01-17T12:45:04.018Z,953
2019-01-17T12:48:31.901Z,778
2019-01-17T12:51:59.789Z,644
2019-01-17T12:55:27.663Z,657
2019-01-17T12:58:55.551Z,692
2019-01-17T13:02:23.434Z,466
2019-01-17T13:05:51.323Z,573
2019-01-17T13:09:20.205Z,679
2019-01-17T13:12:48.140Z,746
2019-01-17T13:16:16.024Z,1048
2019-01-17T13:19:43.911Z,968
2019-01-17T13:23:11.806Z,1046
2019-01-17T13:26:39.678Z,826
2019-01-17T13:30:07.565Z,1011
2019-01-17T13:33:37.437Z,655
2019-01-17T13:37:05.311Z,521
2019-01-17T13:40:34.198Z,344
2019-01-17T13:44:03.079Z,399
2019-01-17T13:47:30.946Z,678
2019-01-17T13:50:58.838Z,2349
2019-01-17T13:54:26.726Z,2063
2019-01-17T13:57:54.592Z,2501
2019-01-17T14:01:22.486Z,910
2019-01-17T14:04:50.379Z,709
2019-01-17T14:08:18.248Z,432
2019-01-17T14:11:46.136Z,479
2019-01-17T14:15:14.023Z,670
2019-01-17T14:18:41.895Z,521
2019-01-17T14:22:09.784Z,500
2019-01-17T14:25:37.673Z,513
2019-01-17T14:29:05.546Z,430
2019-01-17T14:32:33.434Z,372
2019-01-17T14:36:01.334Z,219
2019-01-17T14:39:30.200Z,266
2019-01-17T14:42:59.086Z,144
2019-01-17T14:46:26.996Z,206
2019-01-17T14:49:54.896Z,172
2019-01-17T14:53:23.137Z,134
2019-01-17T14:56:51.029Z,111
2019-01-17T15:00:19.710Z,125
2019-01-17T15:03:47.593Z,114
2019-01-17T15:07:16.481Z,75
2019-01-17T15:10:44.353Z,42
2019-01-17T15:14:13.240Z,52
2019-01-17T15:17:41.124Z,54
2019-01-17T15:21:09.086Z,40
2019-01-17T15:24:36.962Z,14
2019-01-17T15:28:05.897Z,10
2019-01-17T15:31:33.347Z,6
2019-01-17T15:35:01.243Z,4
2019-01-17T15:38:29.126Z,2
2019-01-17T15:41:56.989Z,2
2019-01-17T15:45:24.884Z,2
2019-01-17T15:48:52.779Z,2
2019-01-17T15:52:20.647Z,0
2019-01-17T15:55:48.545Z,1
2019-01-17T15:59:16.430Z,0
2019-01-17T16:02:47.286Z,0
2019-01-17T16:06:15.165Z,0
2019-01-17T16:09:43.066Z,0
2019-01-17T16:13:10.963Z,0
2019-01-17T16:16:38.834Z,0
2019-01-17T16:20:07.718Z,0
2019-01-17T16:23:35.613Z,0
2019-01-17T16:27:03.479Z,0
2019-01-17T16:30:31.355Z,0
2019-01-17T16:33:59.233Z,0
2019-01-17T16:37:27.103Z,0
2019-01-17T16:40:54.997Z,0
2019-01-17T16:44:22.879Z,0
2019-01-17T16:47:51.862Z,0
2019-01-17T16:51:19.737Z,0
2019-01-17T16:54:47.624Z,0
2019-01-17T16:58:15.503Z,0
2019-01-17T17:01:43.399Z,0
2019-01-17T17:05:11.296Z,0
2019-01-17T17:08:39.281Z,0
2019-01-17T17:12:07.201Z,0
2019-01-17T17:15:35.103Z,0
2019-01-17T17:19:02.981Z,0
2019-01-17T17:22:30.880Z,0
2019-01-17T17:25:58.766Z,0
2019-01-17T17:29:26.649Z,0
2019-01-17T17:32:54.542Z,0
2019-01-17T17:36:22.441Z,0
2019-01-17T17:39:50.318Z,0
2019-01-17T17:43:18.217Z,0
2019-01-17T17:46:46.108Z,0
2019-01-17T17:50:13.989Z,0
2019-01-17T17:53:41.890Z,0
2019-01-17T17:57:09.776Z,0
2019-01-17T18:00:37.684Z,0
2019-01-17T18:04:05.564Z,0
2019-01-17T18:07:33.456Z,0
2019-01-17T18:11:01.348Z,0
2019-01-17T18:14:29.222Z,0
2019-01-17T18:17:57.122Z,0
2019-01-17T18:21:25.011Z,0
2019-01-17T18:24:52.884Z,0
2019-01-17T18:28:20.776Z,0
2019-01-17T18:31:48.666Z,0
2019-01-17T18:35:16.570Z,1
2019-01-17T18:38:44.480Z,0
2019-01-17T18:42:12.374Z,0
2019-01-17T18:45:40.249Z,0
2019-01-17T18:49:08.137Z,0
2019-01-17T18:52:37.048Z,0
2019-01-17T18:56:04.919Z,0
2019-01-17T18:59:32.824Z,0
2019-01-17T19:03:00.710Z,0
2019-01-17T19:06:30.484Z,0
2019-01-17T19:09:57.472Z,0
2019-01-17T19:13:25.379Z,0
2019-01-17T19:16:53.256Z,0
2019-01-17T19:20:21.141Z,0
2019-01-17T19:23:49.095Z,0
2019-01-17T19:27:16.969Z,0
2019-01-17T19:30:44.859Z,0
2019-01-17T19:34:12.751Z,0
2019-01-17T19:37:40.620Z,0
2019-01-17T19:41:08.520Z,0
2019-01-17T19:44:37.386Z,0
2019-01-17T19:48:05.257Z,0
2019-01-17T19:51:33.157Z,0
2019-01-17T19:55:01.053Z,0
2019-01-17T19:58:30.905Z,0
2019-01-17T20:01:58.790Z,0
2019-01-17T20:05:26.699Z,0
2019-01-17T20:08:54.568Z,0
2019-01-17T20:12:23.487Z,0
2019-01-17T20:15:51.381Z,0
2019-01-17T20:19:20.265Z,0
2019-01-17T20:22:48.182Z,0
2019-01-17T20:26:16.074Z,0
2019-01-17T20:29:43.945Z,0
2019-01-17T20:33:12.752Z,0
2019-01-17T20:36:41.351Z,0
2019-01-17T20:40:09.339Z,0
2019-01-17T20:43:37.320Z,0
2019-01-17T20:47:05.265Z,0
2019-01-17T20:50:33.193Z,0
2019-01-17T20:54:01.200Z,0
2019-01-17T20:57:30.335Z,0
2019-01-17T21:00:59.144Z,0
2019-01-17T21:04:27.067Z,0
2019-01-17T21:07:54.996Z,0
2019-01-17T21:11:22.928Z,0
2019-01-17T21:14:50.867Z,0
2019-01-17T21:18:19.244Z,0
2019-01-17T21:21:48.146Z,0
2019-01-17T21:25:16.073Z,0
2019-01-17T21:28:49.010Z,0
2019-01-17T21:32:14.882Z,0
2019-01-17T21:35:42.788Z,0
2019-01-17T21:39:10.660Z,0
2019-01-17T21:42:38.559Z,0
2019-01-17T21:46:06.452Z,0
2019-01-17T21:49:35.326Z,0
2019-01-17T21:53:03.242Z,0
2019-01-17T21:56:31.133Z,0
2019-01-17T21:59:59.012Z,0
2019-01-17T22:03:26.897Z,0
2019-01-17T22:06:54.776Z,0
2019-01-17T22:10:22.667Z,0
2019-01-17T22:13:51.533Z,0
2019-01-17T22:17:20.415Z,0
2019-01-17T22:20:48.309Z,0
2019-01-17T22:24:16.197Z,0
2019-01-17T22:27:44.071Z,0
2019-01-17T22:31:12.014Z,0
2019-01-17T22:34:39.915Z,0
2019-01-17T22:38:07.815Z,0
2019-01-17T22:41:35.686Z,0
2019-01-17T22:45:03.579Z,0
2019-01-17T22:48:31.507Z,0
2019-01-17T22:51:59.383Z,0
2019-01-17T22:55:27.276Z,0
2019-01-17T22:58:55.163Z,0
